Time;durP1;ratioP1;P1;durP2;ratioP2;P2;SDS_P1;SDS_P2;PMS_P1;PMS_P2;Temp;Humidity;BMP_temperature;BMP_pressure;BME280_temperature;BME280_humidity;BME280_pressure;Samples;Min_cycle;Max_cycle;Signal;HPM_P1;HPM_P2
2023/03/09 00:00:11;;;;;;;23.53;10.80;;;1.90;99.90;;;;;;5067640;28;20207;-76
2023/03/09 00:02:37;;;;;;;22.10;10.43;;;1.90;99.90;;;;;;5052036;28;20233;-78
2023/03/09 00:05:04;;;;;;;19.33;11.17;;;1.90;99.90;;;;;;5072566;28;20218;-77
2023/03/09 00:07:30;;;;;;;19.57;11.07;;;1.90;99.90;;;;;;5074218;28;20194;-78
2023/03/09 00:09:57;;;;;;;21.80;11.80;;;2.00;99.90;;;;;;5068479;28;20619;-78
2023/03/09 00:12:23;;;;;;;17.83;10.43;;;2.10;99.90;;;;;;5050267;28;20210;-77
2023/03/09 00:14:55;;;;;;;18.00;11.13;;;2.10;99.90;;;;;;5066139;28;20199;-77
2023/03/09 00:17:21;;;;;;;20.80;11.77;;;2.10;99.90;;;;;;5072279;28;20227;-76
2023/03/09 00:19:47;;;;;;;18.30;10.73;;;2.10;99.90;;;;;;5070059;28;20341;-76
2023/03/09 00:22:12;;;;;;;17.80;10.97;;;2.10;99.90;;;;;;5051305;28;20231;-77
2023/03/09 00:24:45;;;;;;;18.40;10.67;;;2.00;99.90;;;;;;5053033;28;20210;-75
2023/03/09 00:27:12;;;;;;;19.67;11.13;;;1.90;99.90;;;;;;5070048;28;20211;-77
2023/03/09 00:29:37;;;;;;;20.00;11.03;;;2.00;99.90;;;;;;5066992;28;20206;-76
2023/03/09 00:32:04;;;;;;;21.77;11.83;;;2.00;99.90;;;;;;5054204;28;20446;-82
2023/03/09 00:34:29;;;;;;;23.98;13.70;;;2.00;99.90;;;;;;5073234;28;20402;-81
2023/03/09 00:36:55;;;;;;;23.57;11.97;;;2.40;99.90;;;;;;5071756;28;20209;-75
2023/03/09 00:39:21;;;;;;;23.43;12.50;;;2.40;99.90;;;;;;5061992;28;20293;-78
2023/03/09 00:41:47;;;;;;;20.97;13.10;;;2.20;99.90;;;;;;5069601;28;20301;-78
2023/03/09 00:44:13;;;;;;;20.87;11.90;;;2.20;99.90;;;;;;5070127;28;20270;-78
2023/03/09 00:46:40;;;;;;;21.03;12.27;;;2.10;99.90;;;;;;5067150;28;20222;-76
2023/03/09 00:49:06;;;;;;;24.70;12.90;;;2.00;99.90;;;;;;5069898;28;20202;-74
2023/03/09 00:51:33;;;;;;;21.33;12.17;;;2.00;99.90;;;;;;5067136;28;20206;-75
2023/03/09 00:53:59;;;;;;;21.77;12.67;;;2.10;99.90;;;;;;5052563;28;20209;-72
2023/03/09 00:56:27;;;;;;;24.23;13.07;;;2.00;99.90;;;;;;5068942;28;20210;-77
2023/03/09 00:58:53;;;;;;;24.00;12.53;;;2.00;99.90;;;;;;5052772;28;20646;-77
2023/03/09 01:01:19;;;;;;;22.80;13.17;;;2.00;99.90;;;;;;5062149;28;20182;-76
2023/03/09 01:03:45;;;;;;;24.97;13.43;;;2.00;99.90;;;;;;5069309;28;20200;-76
2023/03/09 01:06:11;;;;;;;22.10;12.90;;;2.00;99.90;;;;;;5068001;28;20245;-78
2023/03/09 01:08:37;;;;;;;21.23;12.57;;;2.10;99.90;;;;;;5053238;28;20226;-75
2023/03/09 01:11:08;;;;;;;21.37;13.00;;;2.00;99.90;;;;;;5064144;28;20227;-72
2023/03/09 01:13:34;;;;;;;25.23;13.80;;;2.00;99.90;;;;;;5043740;28;20200;-75
2023/03/09 01:15:59;;;;;;;20.27;12.40;;;1.90;99.90;;;;;;5065042;28;20242;-76
2023/03/09 01:18:25;;;;;;;20.70;13.00;;;2.00;99.90;;;;;;5048258;28;20244;-76
2023/03/09 01:20:51;;;;;;;23.43;12.73;;;2.00;99.90;;;;;;5047239;28;20233;-78
2023/03/09 01:23:16;;;;;;;22.87;12.60;;;2.00;99.90;;;;;;5063522;28;20226;-75
2023/03/09 01:25:42;;;;;;;21.70;12.63;;;2.00;99.90;;;;;;5047333;28;20205;-75
2023/03/09 01:28:08;;;;;;;23.33;12.80;;;2.00;99.90;;;;;;5068118;28;20204;-77
2023/03/09 01:30:33;;;;;;;26.17;14.33;;;2.00;99.90;;;;;;5069100;28;20201;-77
2023/03/09 01:32:59;;;;;;;25.03;13.10;;;2.00;99.90;;;;;;5068565;28;20243;-77
2023/03/09 01:35:24;;;;;;;25.90;13.83;;;2.00;99.90;;;;;;5063826;28;20206;-76
2023/03/09 01:37:50;;;;;;;24.33;13.27;;;2.00;99.90;;;;;;5062505;28;20230;-78
2023/03/09 01:40:21;;;;;;;24.63;13.33;;;2.00;99.90;;;;;;5067596;28;20186;-77
2023/03/09 01:43:17;;;;;;;24.73;13.17;;;2.00;99.90;;;;;;5067980;28;20254;-76
2023/03/09 01:45:42;;;;;;;22.20;12.67;;;1.90;99.90;;;;;;5049576;28;20225;-77
2023/03/09 01:48:08;;;;;;;24.23;13.50;;;2.00;99.90;;;;;;5063491;28;20199;-76
2023/03/09 01:50:35;;;;;;;23.00;13.70;;;2.00;99.90;;;;;;5042853;28;20215;-76
2023/03/09 01:53:09;;;;;;;27.30;14.70;;;2.00;99.90;;;;;;5050222;28;20177;-76
2023/03/09 01:55:42;;;;;;;26.37;14.57;;;1.90;99.90;;;;;;5044585;28;20179;-73
2023/03/09 01:58:16;;;;;;;28.67;15.13;;;1.90;99.90;;;;;;5060036;28;20688;-76
2023/03/09 02:00:44;;;;;;;27.17;13.90;;;1.90;99.90;;;;;;5046408;28;20216;-76
2023/03/09 02:03:18;;;;;;;29.37;15.13;;;1.90;99.90;;;;;;5063246;28;20210;-77
2023/03/09 02:05:58;;;;;;;29.33;15.73;;;1.80;99.90;;;;;;5061159;28;20222;-76
2023/03/09 02:08:26;;;;;;;33.10;18.90;;;1.80;99.90;;;;;;5058041;28;20213;-76
2023/03/09 02:10:56;;;;;;;38.30;19.13;;;1.80;99.90;;;;;;5062955;28;20681;-76
2023/03/09 02:13:28;;;;;;;34.70;18.80;;;1.80;99.90;;;;;;5049872;28;20307;-76
2023/03/09 02:15:53;;;;;;;30.77;15.03;;;1.80;99.90;;;;;;5060259;28;20220;-76
2023/03/09 02:18:19;;;;;;;29.60;16.77;;;1.70;99.90;;;;;;5048192;28;20298;-76
2023/03/09 02:20:52;;;;;;;30.67;17.63;;;1.70;99.90;;;;;;5059540;28;20220;-76
2023/03/09 02:23:21;;;;;;;34.13;16.17;;;1.80;99.90;;;;;;5045897;28;20295;-75
2023/03/09 02:26:02;;;;;;;30.17;15.87;;;1.80;99.90;;;;;;5048420;28;20232;-76
2023/03/09 02:28:27;;;;;;;26.93;15.03;;;1.70;99.90;;;;;;5048559;28;20218;-78
2023/03/09 02:30:54;;;;;;;31.57;16.67;;;1.80;99.90;;;;;;5058220;28;20708;-76
2023/03/09 02:33:25;;;;;;;28.00;13.73;;;1.80;99.90;;;;;;5063307;28;20231;-75
2023/03/09 02:35:57;;;;;;;29.70;16.10;;;1.70;99.90;;;;;;5058930;28;20596;-74
2023/03/09 02:38:22;;;;;;;28.90;14.50;;;1.60;99.90;;;;;;5048432;28;20293;-76
2023/03/09 02:40:50;;;;;;;29.53;14.60;;;1.60;99.90;;;;;;5046213;28;20935;-76
2023/03/09 02:43:19;;;;;;;32.17;14.67;;;1.60;99.90;;;;;;5060810;28;20281;-76
2023/03/09 02:45:45;;;;;;;29.07;16.97;;;1.70;99.90;;;;;;5058247;28;20249;-75
2023/03/09 02:48:11;;;;;;;27.93;15.20;;;1.60;99.90;;;;;;5044367;28;20209;-76
2023/03/09 02:50:37;;;;;;;33.27;16.80;;;1.70;99.90;;;;;;5046705;28;20211;-75
2023/03/09 02:53:03;;;;;;;35.77;17.90;;;1.60;99.90;;;;;;5058757;28;20204;-76
2023/03/09 02:55:30;;;;;;;32.77;16.03;;;1.70;99.90;;;;;;5060827;28;20199;-75
2023/03/09 02:57:55;;;;;;;32.83;16.37;;;1.60;99.90;;;;;;5057027;28;20221;-76
2023/03/09 03:00:21;;;;;;;31.90;17.10;;;1.60;99.90;;;;;;5048695;28;20246;-75
2023/03/09 03:02:47;;;;;;;31.17;15.23;;;1.60;99.90;;;;;;5057353;28;20307;-75
2023/03/09 03:05:13;;;;;;;34.83;17.20;;;1.60;99.90;;;;;;5061277;28;20305;-73
2023/03/09 03:07:39;;;;;;;36.87;18.00;;;1.50;99.90;;;;;;5058820;28;20249;-78
2023/03/09 03:10:06;;;;;;;27.87;15.80;;;1.50;99.90;;;;;;5061190;28;20708;-75
2023/03/09 03:12:31;;;;;;;33.20;16.77;;;1.50;99.90;;;;;;5061646;28;20275;-76
2023/03/09 03:14:57;;;;;;;33.10;16.53;;;1.50;99.90;;;;;;5057644;28;20244;-75
2023/03/09 03:17:23;;;;;;;36.30;17.17;;;1.50;99.90;;;;;;5049679;28;20247;-75
2023/03/09 03:19:49;;;;;;;30.90;16.07;;;1.50;99.90;;;;;;5062990;28;20719;-76
2023/03/09 03:22:15;;;;;;;31.80;15.67;;;1.50;99.90;;;;;;5053560;28;20207;-76
2023/03/09 03:24:41;;;;;;;32.93;16.03;;;1.50;99.90;;;;;;5049517;28;20210;-76
2023/03/09 03:27:07;;;;;;;29.83;15.43;;;1.60;99.90;;;;;;5063137;28;20302;-74
2023/03/09 03:29:32;;;;;;;31.47;16.63;;;1.60;99.90;;;;;;5065170;28;20299;-75
2023/03/09 03:31:58;;;;;;;30.13;14.70;;;1.50;99.90;;;;;;5052120;28;20303;-76
2023/03/09 03:34:24;;;;;;;27.30;15.67;;;1.50;99.90;;;;;;5049705;28;20184;-76
2023/03/09 03:36:50;;;;;;;30.30;15.33;;;1.50;99.90;;;;;;5045527;28;20221;-76
2023/03/09 03:39:16;;;;;;;32.97;15.00;;;1.50;99.90;;;;;;5063085;28;20217;-75
2023/03/09 03:41:41;;;;;;;30.67;15.90;;;1.50;99.90;;;;;;5049301;28;20592;-76
2023/03/09 03:44:07;;;;;;;25.03;13.57;;;1.40;99.90;;;;;;5065268;28;20650;-75
2023/03/09 03:46:32;;;;;;;28.70;13.80;;;1.40;99.90;;;;;;5044864;28;20214;-76
2023/03/09 03:48:58;;;;;;;32.90;15.97;;;1.40;99.90;;;;;;5062176;28;20213;-76
2023/03/09 03:51:24;;;;;;;27.17;13.93;;;1.30;99.90;;;;;;5063900;28;20203;-76
2023/03/09 03:53:50;;;;;;;28.77;15.40;;;1.30;99.90;;;;;;5058887;28;20293;-75
2023/03/09 03:56:16;;;;;;;27.97;14.60;;;1.40;99.90;;;;;;5042664;28;20241;-75
2023/03/09 03:58:41;;;;;;;26.60;14.33;;;1.30;99.90;;;;;;5068810;28;20175;-77
2023/03/09 04:01:07;;;;;;;33.40;16.30;;;1.30;99.90;;;;;;5065277;28;20238;-76
2023/03/09 04:03:33;;;;;;;27.77;13.77;;;1.30;99.90;;;;;;5051175;28;20238;-76
2023/03/09 04:05:59;;;;;;;28.87;15.03;;;1.20;99.90;;;;;;5064015;28;20241;-76
2023/03/09 04:08:25;;;;;;;28.90;14.80;;;1.20;99.90;;;;;;5068257;28;20336;-75
2023/03/09 04:10:50;;;;;;;31.07;15.67;;;1.20;99.90;;;;;;5067220;28;20543;-77
2023/03/09 04:13:16;;;;;;;26.50;14.40;;;1.20;99.90;;;;;;5046621;28;20193;-76
2023/03/09 04:15:42;;;;;;;29.53;14.80;;;1.20;99.90;;;;;;5051651;28;20270;-76
2023/03/09 04:18:08;;;;;;;29.13;14.93;;;1.20;99.90;;;;;;5064421;28;20721;-76
2023/03/09 04:20:36;;;;;;;28.57;15.03;;;1.10;99.90;;;;;;5051114;28;20250;-74
2023/03/09 04:23:01;;;;;;;26.60;15.40;;;1.10;99.90;;;;;;5066063;28;20530;-75
2023/03/09 04:25:27;;;;;;;28.20;14.83;;;1.10;99.90;;;;;;5066836;28;20201;-76
2023/03/09 04:27:54;;;;;;;29.90;16.50;;;1.10;99.90;;;;;;5044909;28;20215;-77
2023/03/09 04:30:20;;;;;;;27.70;14.70;;;1.10;99.90;;;;;;5053712;28;20206;-77
2023/03/09 04:32:47;;;;;;;31.60;17.37;;;1.20;99.90;;;;;;5066149;28;20222;-77
2023/03/09 04:35:14;;;;;;;26.47;14.70;;;1.10;99.90;;;;;;5068248;28;20206;-76
2023/03/09 04:37:39;;;;;;;27.83;15.60;;;1.10;99.90;;;;;;5061203;28;20204;-76
2023/03/09 04:40:05;;;;;;;29.43;15.97;;;1.10;99.90;;;;;;5049538;28;20261;-75
2023/03/09 04:42:32;;;;;;;27.77;14.80;;;1.20;99.90;;;;;;5068301;28;20230;-76
2023/03/09 04:44:57;;;;;;;31.33;15.93;;;1.20;99.90;;;;;;5053146;28;20211;-77
2023/03/09 04:47:23;;;;;;;28.00;15.43;;;1.10;99.90;;;;;;5046164;28;20218;-76
2023/03/09 04:49:49;;;;;;;31.57;17.57;;;1.10;99.90;;;;;;5062420;28;20682;-76
2023/03/09 04:52:15;;;;;;;35.23;18.50;;;1.10;99.90;;;;;;5069990;28;20213;-76
2023/03/09 04:54:40;;;;;;;29.07;15.63;;;1.20;99.90;;;;;;5048925;28;20211;-76
2023/03/09 04:57:06;;;;;;;30.90;17.67;;;1.20;99.90;;;;;;5064152;28;20229;-74
2023/03/09 04:59:33;;;;;;;38.30;20.30;;;1.20;99.90;;;;;;5049713;28;20813;-76
2023/03/09 05:01:58;;;;;;;34.50;17.60;;;1.20;99.90;;;;;;5066138;28;20202;-76
2023/03/09 05:04:24;;;;;;;36.37;18.83;;;1.20;99.90;;;;;;5067205;28;20177;-76
2023/03/09 05:06:50;;;;;;;33.23;17.23;;;1.20;99.90;;;;;;5063629;28;20244;-74
2023/03/09 05:09:16;;;;;;;33.30;18.10;;;1.20;99.90;;;;;;5063825;28;20232;-76
2023/03/09 05:11:42;;;;;;;34.97;18.17;;;1.30;99.90;;;;;;5059905;28;20212;-76
2023/03/09 05:14:08;;;;;;;31.10;17.47;;;1.30;99.90;;;;;;5066179;28;20232;-76
2023/03/09 05:16:34;;;;;;;27.93;15.60;;;1.30;99.90;;;;;;5049494;28;20215;-76
2023/03/09 05:19:00;;;;;;;29.77;16.33;;;1.30;99.90;;;;;;5064203;28;20212;-76
2023/03/09 05:21:26;;;;;;;33.00;18.87;;;1.30;99.90;;;;;;5045696;28;20219;-78
2023/03/09 05:23:51;;;;;;;34.93;16.80;;;1.30;99.90;;;;;;5062521;28;20215;-76
2023/03/09 05:26:17;;;;;;;32.93;17.67;;;1.30;99.90;;;;;;5068300;28;20219;-77
2023/03/09 05:28:43;;;;;;;32.87;17.60;;;1.30;99.90;;;;;;5052000;28;20824;-77
2023/03/09 05:31:11;;;;;;;32.77;17.70;;;1.30;99.90;;;;;;5064520;28;20267;-76
2023/03/09 05:33:37;;;;;;;32.60;18.27;;;1.30;99.90;;;;;;5038781;28;20210;-75
2023/03/09 05:36:03;;;;;;;32.43;18.60;;;1.30;99.90;;;;;;5050934;28;20212;-77
2023/03/09 05:38:29;;;;;;;34.10;19.00;;;1.30;99.90;;;;;;5067533;28;20234;-78
2023/03/09 05:40:54;;;;;;;27.07;16.20;;;1.30;99.90;;;;;;5065220;28;20179;-77
2023/03/09 05:43:20;;;;;;;34.53;18.73;;;1.30;99.90;;;;;;5045245;28;20265;-78
2023/03/09 05:45:54;;;;;;;32.83;17.83;;;1.30;99.90;;;;;;5065090;28;20754;-77
2023/03/09 05:48:20;;;;;;;30.67;17.43;;;1.30;99.90;;;;;;5046258;28;20202;-76
2023/03/09 05:50:45;;;;;;;32.17;17.57;;;1.30;99.90;;;;;;5063619;28;20633;-78
2023/03/09 05:53:11;;;;;;;30.77;17.43;;;1.30;99.90;;;;;;5063616;28;20767;-77
2023/03/09 05:55:37;;;;;;;30.67;17.03;;;1.30;99.90;;;;;;5063351;28;20186;-75
2023/03/09 05:58:02;;;;;;;31.67;18.07;;;1.30;99.90;;;;;;5063980;28;20254;-77
2023/03/09 06:00:28;;;;;;;31.27;17.70;;;1.30;99.90;;;;;;5067288;28;20209;-77
2023/03/09 06:02:53;;;;;;;31.73;17.30;;;1.40;99.90;;;;;;5062215;28;20592;-77
2023/03/09 06:05:19;;;;;;;31.77;17.00;;;1.40;99.90;;;;;;5044850;28;20334;-78
2023/03/09 06:07:45;;;;;;;29.53;16.63;;;1.40;99.90;;;;;;5046679;28;20579;-77
2023/03/09 06:10:12;;;;;;;27.03;16.57;;;1.50;99.90;;;;;;5066890;28;20197;-75
2023/03/09 06:12:37;;;;;;;27.37;15.83;;;1.50;99.90;;;;;;5059614;28;20593;-75
2023/03/09 06:15:03;;;;;;;26.70;15.60;;;1.40;99.90;;;;;;5052663;28;20202;-76
2023/03/09 06:17:29;;;;;;;30.50;16.53;;;1.50;99.90;;;;;;5063247;28;20233;-76
2023/03/09 06:19:54;;;;;;;28.33;16.37;;;1.50;99.90;;;;;;5061464;28;20177;-76
2023/03/09 06:22:20;;;;;;;29.73;16.50;;;1.40;99.90;;;;;;5062877;28;20177;-75
2023/03/09 06:24:46;;;;;;;30.37;16.33;;;1.50;99.90;;;;;;5061697;28;20262;-76
2023/03/09 06:27:11;;;;;;;25.70;16.07;;;1.50;99.90;;;;;;5051004;28;20218;-76
2023/03/09 06:29:37;;;;;;;31.93;16.77;;;1.50;99.90;;;;;;5061598;28;20207;-74
2023/03/09 06:32:03;;;;;;;29.47;16.50;;;1.60;99.90;;;;;;5060797;28;20256;-75
2023/03/09 06:34:30;;;;;;;26.50;16.40;;;1.60;99.90;;;;;;5060954;28;20213;-75
2023/03/09 06:36:55;;;;;;;27.80;16.67;;;1.60;99.90;;;;;;5060205;28;20214;-76
2023/03/09 06:39:21;;;;;;;26.50;15.33;;;1.60;99.90;;;;;;5048597;28;20207;-76
2023/03/09 06:41:47;;;;;;;26.53;15.20;;;1.60;99.90;;;;;;5063545;28;20231;-76
2023/03/09 06:44:13;;;;;;;25.80;15.27;;;1.60;99.90;;;;;;5064146;28;20209;-76
2023/03/09 06:46:39;;;;;;;24.37;15.50;;;1.60;99.90;;;;;;5046225;28;20222;-76
2023/03/09 06:49:04;;;;;;;24.77;14.57;;;1.70;99.90;;;;;;5044317;28;20288;-76
2023/03/09 06:51:30;;;;;;;24.40;14.20;;;1.70;99.90;;;;;;5062193;28;20293;-77
2023/03/09 06:53:57;;;;;;;25.27;14.50;;;1.80;99.90;;;;;;5063126;28;20272;-77
2023/03/09 06:56:23;;;;;;;22.47;14.00;;;1.70;99.90;;;;;;5065465;28;20221;-76
2023/03/09 06:58:49;;;;;;;24.93;14.33;;;1.70;99.90;;;;;;5061874;28;20554;-76
2023/03/09 07:01:15;;;;;;;24.50;15.10;;;1.70;99.90;;;;;;5062372;28;20252;-75
2023/03/09 07:03:41;;;;;;;24.43;14.87;;;1.80;99.90;;;;;;5045278;28;20204;-77
2023/03/09 07:06:07;;;;;;;25.33;14.83;;;1.80;99.90;;;;;;5061121;28;20747;-76
2023/03/09 07:08:34;;;;;;;24.37;15.00;;;1.70;99.90;;;;;;5059283;28;20307;-77
2023/03/09 07:10:59;;;;;;;24.90;14.20;;;1.70;99.90;;;;;;5048783;28;20234;-77
2023/03/09 07:13:25;;;;;;;24.37;13.67;;;1.80;99.90;;;;;;5063076;28;20214;-77
2023/03/09 07:15:51;;;;;;;24.30;14.73;;;1.80;99.90;;;;;;5058519;28;20244;-77
2023/03/09 07:18:17;;;;;;;22.33;13.50;;;1.90;99.90;;;;;;5062125;28;20249;-76
2023/03/09 07:20:42;;;;;;;22.87;13.77;;;1.80;99.90;;;;;;5062047;28;20214;-76
2023/03/09 07:23:09;;;;;;;20.30;12.97;;;1.80;99.90;;;;;;5067160;28;20182;-76
2023/03/09 07:25:36;;;;;;;22.07;12.97;;;1.80;99.90;;;;;;5069701;28;20199;-76
2023/03/09 07:28:03;;;;;;;22.47;12.93;;;1.80;99.90;;;;;;5069532;28;20200;-76
2023/03/09 07:30:30;;;;;;;20.87;13.60;;;1.80;99.90;;;;;;5062140;28;20203;-77
2023/03/09 07:32:57;;;;;;;20.60;13.33;;;1.90;99.90;;;;;;5058558;28;20218;-77
2023/03/09 07:35:23;;;;;;;23.97;13.90;;;1.90;99.90;;;;;;5061416;28;20214;-76
2023/03/09 07:37:48;;;;;;;20.43;11.93;;;1.80;99.90;;;;;;5046436;28;20194;-77
2023/03/09 07:40:14;;;;;;;25.63;14.63;;;1.80;99.90;;;;;;5045382;28;20212;-77
2023/03/09 07:42:40;;;;;;;21.33;12.90;;;1.70;99.90;;;;;;5057702;28;20240;-77
2023/03/09 07:45:07;;;;;;;48.10;27.43;;;1.70;99.90;;;;;;5041220;28;20207;-77
2023/03/09 07:47:33;;;;;;;43.07;23.57;;;1.80;99.90;;;;;;5060711;28;20210;-76
2023/03/09 07:50:00;;;;;;;21.20;13.23;;;1.80;99.90;;;;;;5066619;28;20258;-76
2023/03/09 07:52:30;;;;;;;20.07;13.10;;;1.90;99.90;;;;;;5054701;28;20252;-77
2023/03/09 07:54:57;;;;;;;21.27;12.67;;;1.90;99.90;;;;;;5065326;28;20214;-77
2023/03/09 07:57:23;;;;;;;21.77;12.50;;;2.00;99.90;;;;;;5070774;28;20237;-76
2023/03/09 07:59:54;;;;;;;18.67;12.00;;;1.90;99.90;;;;;;5042065;28;20700;-75
2023/03/09 08:02:20;;;;;;;20.70;12.80;;;2.00;99.90;;;;;;5063037;28;20947;-77
2023/03/09 08:04:45;;;;;;;21.10;12.33;;;2.00;99.90;;;;;;5052277;28;20210;-76
2023/03/09 08:07:11;;;;;;;18.00;12.03;;;2.00;99.90;;;;;;5065023;28;20604;-74
2023/03/09 08:09:37;;;;;;;20.23;12.57;;;2.00;99.90;;;;;;5070085;28;20712;-75
2023/03/09 08:12:03;;;;;;;16.07;11.60;;;2.10;99.90;;;;;;5063154;28;20207;-76
2023/03/09 08:14:29;;;;;;;20.07;12.47;;;2.00;99.90;;;;;;5050974;28;20270;-76
2023/03/09 08:16:54;;;;;;;18.83;12.10;;;2.00;99.90;;;;;;5050701;28;20221;-75
2023/03/09 08:19:21;;;;;;;18.63;11.80;;;2.00;99.90;;;;;;5066828;28;20224;-74
2023/03/09 08:21:48;;;;;;;22.77;12.90;;;2.00;99.90;;;;;;5067220;28;20218;-74
2023/03/09 08:24:15;;;;;;;19.63;12.53;;;2.00;99.90;;;;;;5065258;28;20212;-76
2023/03/09 08:26:41;;;;;;;21.33;13.43;;;2.00;99.90;;;;;;5050396;28;20233;-76
2023/03/09 08:29:06;;;;;;;20.93;13.03;;;2.00;99.90;;;;;;5064620;28;20184;-73
2023/03/09 08:31:33;;;;;;;19.07;12.20;;;2.00;99.90;;;;;;5063701;28;20211;-77
2023/03/09 08:33:59;;;;;;;19.57;13.50;;;2.00;99.90;;;;;;5067654;28;20280;-76
2023/03/09 08:36:25;;;;;;;22.87;13.20;;;2.00;99.90;;;;;;5063647;28;20212;-76
2023/03/09 08:38:51;;;;;;;19.77;12.10;;;2.00;99.90;;;;;;5063066;28;20219;-74
2023/03/09 08:41:17;;;;;;;18.13;12.33;;;1.90;99.90;;;;;;5067218;28;20254;-76
2023/03/09 08:43:44;;;;;;;23.83;13.83;;;2.00;99.90;;;;;;5060594;28;20253;-77
2023/03/09 08:46:10;;;;;;;24.03;14.07;;;2.00;99.90;;;;;;5050123;28;20279;-76
2023/03/09 08:48:36;;;;;;;22.40;13.90;;;2.10;99.90;;;;;;5050077;28;20214;-77
2023/03/09 08:51:05;;;;;;;20.17;12.63;;;2.10;99.90;;;;;;5059952;28;20895;-77
2023/03/09 08:53:33;;;;;;;20.80;13.57;;;2.10;99.90;;;;;;5046949;28;20232;-75
2023/03/09 08:56:03;;;;;;;23.50;13.93;;;2.00;99.90;;;;;;5061135;28;20209;-77
2023/03/09 08:58:29;;;;;;;21.83;14.17;;;2.00;99.90;;;;;;5064319;28;20641;-77
2023/03/09 09:00:54;;;;;;;24.33;15.27;;;2.00;99.90;;;;;;5048267;28;20297;-77
2023/03/09 09:03:20;;;;;;;23.23;15.03;;;2.00;99.90;;;;;;5066735;28;20263;-77
2023/03/09 09:05:45;;;;;;;23.57;15.23;;;2.10;99.90;;;;;;5060919;28;20721;-77
2023/03/09 09:08:11;;;;;;;27.55;18.63;;;2.10;99.90;;;;;;5061322;28;20398;-77
2023/03/09 09:10:45;;;;;;;25.50;16.23;;;2.00;99.90;;;;;;5063653;28;20198;-76
2023/03/09 09:13:11;;;;;;;22.97;15.67;;;1.90;99.90;;;;;;5049298;28;20294;-77
2023/03/09 09:15:39;;;;;;;27.63;16.13;;;1.90;99.90;;;;;;5060752;28;20254;-77
2023/03/09 09:18:05;;;;;;;25.80;15.47;;;2.00;99.90;;;;;;5063075;28;20234;-77
2023/03/09 09:20:30;;;;;;;27.50;16.10;;;1.90;99.90;;;;;;5062450;28;20263;-77
2023/03/09 09:22:56;;;;;;;25.73;15.63;;;1.90;99.90;;;;;;5045974;28;20268;-77
2023/03/09 09:25:22;;;;;;;24.47;15.90;;;1.90;99.90;;;;;;5066399;28;20186;-76
2023/03/09 09:27:51;;;;;;;27.27;16.33;;;1.90;99.90;;;;;;5045513;28;20207;-77
2023/03/09 09:30:18;;;;;;;27.10;16.63;;;1.90;99.90;;;;;;5062933;28;20267;-77
2023/03/09 09:32:44;;;;;;;27.10;16.93;;;1.90;99.90;;;;;;5058273;28;20215;-77
2023/03/09 09:35:11;;;;;;;27.77;17.87;;;2.00;99.90;;;;;;5046143;28;20223;-77
2023/03/09 09:37:40;;;;;;;24.77;16.97;;;1.90;99.90;;;;;;5067307;28;20795;-77
2023/03/09 09:40:11;;;;;;;27.80;17.33;;;2.00;99.90;;;;;;5061323;28;20762;-75
2023/03/09 09:42:40;;;;;;;27.67;16.37;;;2.20;99.90;;;;;;5047793;28;20282;-73
2023/03/09 09:45:21;;;;;;;27.63;16.50;;;2.00;99.90;;;;;;5048508;28;20747;-76
2023/03/09 09:47:47;;;;;;;30.87;17.43;;;1.90;99.90;;;;;;5059773;28;20221;-76
2023/03/09 09:50:14;;;;;;;25.70;17.13;;;1.90;99.90;;;;;;5061938;28;20240;-77
2023/03/09 09:53:34;;;;;;;30.03;17.60;;;1.90;99.90;;;;;;5050498;28;20193;-76
2023/03/09 09:56:01;;;;;;;27.60;17.47;;;2.10;99.90;;;;;;5009292;28;20283;-78
2023/03/09 09:58:37;;;;;;;28.57;17.00;;;2.30;99.90;;;;;;5041852;28;20645;-78
2023/03/09 10:01:19;;;;;;;26.50;17.30;;;2.50;99.90;;;;;;5049086;28;20566;-76
2023/03/09 10:03:47;;;;;;;24.33;15.80;;;2.40;99.90;;;;;;5063134;28;20268;-76
2023/03/09 10:06:21;;;;;;;24.53;16.57;;;2.40;99.90;;;;;;5062907;28;20694;-76
2023/03/09 10:08:53;;;;;;;24.50;16.83;;;2.40;99.90;;;;;;5047418;28;20211;-75
2023/03/09 10:11:23;;;;;;;24.83;15.37;;;2.30;99.90;;;;;;5063538;28;20210;-74
2023/03/09 10:14:15;;;;;;;27.97;16.83;;;2.30;99.90;;;;;;5060335;28;20202;-75
2023/03/09 10:17:30;;;;;;;23.43;15.67;;;2.30;99.90;;;;;;5057613;28;20227;-77
2023/03/09 10:20:01;;;;;;;26.40;15.87;;;2.40;99.90;;;;;;5023573;28;20634;-76
2023/03/09 10:22:27;;;;;;;31.13;17.63;;;2.30;99.90;;;;;;5044451;28;20457;-80
2023/03/09 10:25:01;;;;;;;26.93;16.67;;;2.20;99.90;;;;;;5060543;28;20711;-76
2023/03/09 10:27:44;;;;;;;25.53;16.67;;;2.40;99.90;;;;;;5050950;28;20226;-75
2023/03/09 10:30:10;;;;;;;28.43;16.60;;;2.50;99.90;;;;;;5050140;28;20200;-77
2023/03/09 10:32:59;;;;;;;29.57;17.67;;;2.40;99.90;;;;;;5068712;28;20259;-75
2023/03/09 10:35:27;;;;;;;23.60;16.30;;;2.40;99.90;;;;;;5069394;28;20239;-77
2023/03/09 10:37:53;;;;;;;29.50;19.27;;;2.40;99.90;;;;;;5049384;28;20179;-77
2023/03/09 10:40:21;;;;;;;29.07;17.73;;;2.50;99.90;;;;;;5049080;28;20188;-76
2023/03/09 10:42:47;;;;;;;26.30;16.90;;;2.40;99.90;;;;;;5066661;28;20203;-76
2023/03/09 10:45:15;;;;;;;27.13;17.77;;;2.50;99.90;;;;;;5067544;28;20261;-77
2023/03/09 10:47:57;;;;;;;28.67;17.93;;;2.40;99.90;;;;;;5069442;28;20203;-78
2023/03/09 10:50:29;;;;;;;26.37;17.33;;;2.40;99.90;;;;;;5065031;28;20221;-77
2023/03/09 10:52:56;;;;;;;26.17;16.27;;;2.50;99.90;;;;;;5046393;28;20219;-78
2023/03/09 10:55:35;;;;;;;25.43;16.20;;;2.40;99.90;;;;;;5061956;28;20171;-77
2023/03/09 10:58:11;;;;;;;28.37;18.93;;;2.40;99.90;;;;;;5050883;28;20199;-78
2023/03/09 11:01:02;;;;;;;27.27;17.63;;;2.50;99.90;;;;;;5046552;28;20690;-78
2023/03/09 11:03:34;;;;;;;29.97;18.30;;;2.30;99.90;;;;;;5065810;28;20207;-77
2023/03/09 11:06:14;;;;;;;27.47;17.57;;;2.40;99.90;;;;;;5061511;28;20223;-75
2023/03/09 11:08:53;;;;;;;28.13;18.47;;;2.50;99.90;;;;;;5046547;28;20594;-76
2023/03/09 11:11:21;;;;;;;29.13;17.90;;;2.50;99.90;;;;;;5042229;28;20580;-77
2023/03/09 11:13:47;;;;;;;27.27;18.43;;;2.40;99.90;;;;;;5049691;28;20228;-76
2023/03/09 11:16:26;;;;;;;30.23;19.03;;;2.40;99.90;;;;;;5044294;28;20231;-76
2023/03/09 11:19:11;;;;;;;27.87;19.10;;;2.40;99.90;;;;;;5042814;28;20207;-76
2023/03/09 11:21:40;;;;;;;26.93;17.13;;;2.30;99.90;;;;;;5060296;28;20269;-78
2023/03/09 11:24:08;;;;;;;29.27;17.90;;;2.30;99.90;;;;;;5064840;28;20206;-76
2023/03/09 11:26:39;;;;;;;27.33;17.43;;;2.20;99.90;;;;;;5063560;28;20222;-79
2023/03/09 11:29:21;;;;;;;31.43;19.30;;;2.20;99.90;;;;;;5061151;28;20184;-78
2023/03/09 11:31:47;;;;;;;27.77;18.60;;;2.30;99.90;;;;;;5052024;28;20184;-76
2023/03/09 11:34:17;;;;;;;28.23;18.57;;;2.40;99.90;;;;;;5065277;28;20212;-77
2023/03/09 11:37:04;;;;;;;32.20;18.83;;;2.30;99.90;;;;;;5059191;28;20238;-77
2023/03/09 11:39:38;;;;;;;29.13;19.17;;;2.40;99.90;;;;;;5063321;28;20203;-76
2023/03/09 11:42:10;;;;;;;29.93;18.60;;;2.40;99.90;;;;;;5065227;28;20210;-78
2023/03/09 11:44:42;;;;;;;29.40;18.50;;;2.40;99.90;;;;;;5061322;28;20276;-76
2023/03/09 11:47:36;;;;;;;35.43;18.70;;;2.40;99.90;;;;;;5065184;28;20216;-75
2023/03/09 11:50:32;;;;;;;27.73;18.07;;;2.50;99.90;;;;;;5041089;28;20195;-76
2023/03/09 11:53:01;;;;;;;25.80;17.13;;;2.50;99.90;;;;;;5046555;28;20624;-76
2023/03/09 11:55:38;;;;;;;29.03;18.60;;;2.40;99.90;;;;;;5048734;28;20189;-77
2023/03/09 11:58:09;;;;;;;30.90;18.50;;;2.40;99.90;;;;;;5043410;28;20199;-76
2023/03/09 12:00:38;;;;;;;28.50;18.47;;;2.50;99.90;;;;;;5062912;28;20344;-76
2023/03/09 12:03:17;;;;;;;31.73;18.33;;;2.50;99.90;;;;;;5064251;28;20260;-76
2023/03/09 12:05:51;;;;;;;28.00;18.23;;;2.50;99.90;;;;;;5057283;28;20222;-76
2023/03/09 12:08:25;;;;;;;29.73;17.93;;;2.50;99.90;;;;;;5068374;28;20700;-76
2023/03/09 12:11:20;;;;;;;27.47;18.07;;;2.50;99.90;;;;;;5049056;28;20182;-76
2023/03/09 12:14:19;;;;;;;29.83;18.10;;;2.50;99.90;;;;;;5055444;28;20178;-76
2023/03/09 12:16:47;;;;;;;27.43;18.10;;;2.50;99.90;;;;;;5050333;28;20231;-75
2023/03/09 12:19:19;;;;;;;30.90;18.90;;;2.40;99.90;;;;;;5064570;28;20235;-76
2023/03/09 12:22:15;;;;;;;27.57;17.43;;;2.50;99.90;;;;;;5060112;28;20242;-74
2023/03/09 12:24:43;;;;;;;30.23;18.40;;;2.60;99.90;;;;;;5059880;28;20289;-75
2023/03/09 12:27:24;;;;;;;31.70;18.53;;;2.50;99.90;;;;;;5062359;28;20297;-77
2023/03/09 12:29:59;;;;;;;27.47;18.87;;;2.50;99.90;;;;;;5064185;28;20785;-76
2023/03/09 12:32:25;;;;;;;28.47;18.30;;;2.50;99.90;;;;;;5043490;28;20215;-77
2023/03/09 12:34:53;;;;;;;30.23;18.60;;;2.50;99.90;;;;;;5061798;28;20707;-77
2023/03/09 12:37:28;;;;;;;30.43;18.47;;;2.50;99.90;;;;;;5050754;28;20203;-75
2023/03/09 12:40:32;;;;;;;28.47;17.70;;;2.60;99.90;;;;;;5064521;28;21498;-75
2023/03/09 12:43:18;;;;;;;32.47;19.07;;;2.60;99.90;;;;;;5008747;28;20217;-79